Time;durP1;ratioP1;P1;durP2;ratioP2;P2;SDS_P1;SDS_P2;PMS_P1;PMS_P2;Temp;Humidity;BMP_temperature;BMP_pressure;BME280_temperature;BME280_humidity;BME280_pressure;Samples;Min_cycle;Max_cycle;Signal;HPM_P1;HPM_P2
2022/12/17 13:07:33;;;;;;;31.98;18.52;;;;;;;12.63;85.02;99770.72;5073497;28;20238;-44
2022/12/17 13:09:58;;;;;;;32.63;18.40;;;;;;;12.15;87.08;99765.03;5072738;28;20498;-44
2022/12/17 13:12:29;;;;;;;35.28;18.88;;;;;;;12.24;86.54;99753.09;5071999;28;20024;-44
2022/12/17 13:14:57;;;;;;;35.50;19.08;;;;;;;12.09;88.34;99762.22;5072899;28;20040;-44
2022/12/17 13:17:38;;;;;;;30.80;18.05;;;;;;;12.16;86.88;99750.69;5071484;28;20387;-42
2022/12/17 13:20:21;;;;;;;29.98;18.05;;;;;;;12.20;87.14;99752.69;5073196;28;20028;-43
2022/12/17 13:23:03;;;;;;;32.97;20.10;;;;;;;12.31;86.46;99751.22;5072035;28;20048;-44
2022/12/17 13:25:28;;;;;;;34.17;19.27;;;;;;;12.15;88.35;99760.53;5071287;28;20464;-44
2022/12/17 13:27:54;;;;;;;34.65;20.17;;;;;;;12.50;86.36;99765.47;5073237;28;20032;-44
2022/12/17 13:30:33;;;;;;;34.25;20.60;;;;;;;12.50;85.96;99776.94;5073333;28;20039;-43
2022/12/17 13:33:04;;;;;;;30.65;20.08;;;;;;;12.45;86.47;99768.78;5071427;28;20134;-47
2022/12/17 13:35:59;;;;;;;31.13;20.35;;;;;;;12.47;86.11;99780.06;5072223;28;20086;-43
2022/12/17 13:38:39;;;;;;;32.72;20.08;;;;;;;12.65;85.63;99789.19;5023941;28;20053;-42
2022/12/17 13:41:10;;;;;;;32.50;19.60;;;;;;;13.11;83.84;99785.34;5053158;28;20036;-42
2022/12/17 13:43:45;;;;;;;32.67;19.52;;;;;;;12.86;84.26;99796.84;5053127;28;20037;-42
2022/12/17 13:46:24;;;;;;;37.90;20.83;;;;;;;13.01;84.35;99807.22;5052027;28;20033;-43
2022/12/17 13:48:59;;;;;;;34.28;20.30;;;;;;;13.15;83.13;99791.06;5052863;28;20032;-43
2022/12/17 13:51:27;;;;;;;36.95;20.40;;;;;;;13.05;83.71;99799.56;5052864;28;20040;-43
2022/12/17 13:54:01;;;;;;;32.03;19.65;;;;;;;12.88;84.94;99802.78;5053110;28;20028;-43
2022/12/17 13:56:28;;;;;;;31.67;19.30;;;;;;;13.08;83.64;99789.28;5052768;28;20021;-43
2022/12/17 13:58:56;;;;;;;32.85;19.50;;;;;;;13.14;83.34;99798.28;5052704;28;20479;-43
2022/12/17 14:01:22;;;;;;;36.40;21.55;;;;;;;13.04;84.22;99821.97;5052632;28;20032;-44
2022/12/17 14:03:50;;;;;;;35.90;21.67;;;;;;;12.63;86.20;99824.09;5052499;28;20540;-43
2022/12/17 14:06:16;;;;;;;32.50;20.00;;;;;;;12.62;85.69;99822.50;5058068;28;20099;-44
2022/12/17 14:08:42;;;;;;;37.00;20.60;;;;;;;12.48;86.33;99807.56;5072217;28;20543;-42
2022/12/17 14:13:55;;;;;;;45.72;25.80;;;;;;;12.51;86.26;99817.81;5071165;28;20528;-43
2022/12/17 14:16:21;;;;;;;38.00;22.50;;;;;;;12.56;86.86;99820.66;5071689;28;20064;-43
2022/12/17 14:18:55;;;;;;;35.38;20.83;;;;;;;12.57;86.76;99826.84;5071234;28;20392;-43
2022/12/17 14:21:21;;;;;;;36.45;21.60;;;;;;;12.07;88.50;99830.97;5071592;28;20063;-44
2022/12/17 14:23:50;;;;;;;41.08;21.67;;;;;;;11.74;90.45;99833.69;5071389;28;20025;-43
2022/12/17 14:26:16;;;;;;;43.92;22.50;;;;;;;11.92;90.10;99839.22;5071492;28;20059;-44
2022/12/17 14:28:47;;;;;;;36.03;22.75;;;;;;;11.95;89.33;99837.16;5070125;28;20021;-43
2022/12/17 14:31:12;;;;;;;39.08;21.83;;;;;;;12.01;88.78;99831.78;5071351;28;20078;-42
2022/12/17 14:33:38;;;;;;;38.72;22.70;;;;;;;11.96;88.66;99825.47;5071355;28;20024;-42
2022/12/17 14:36:07;;;;;;;40.55;23.17;;;;;;;11.84;89.10;99817.25;5071230;28;20093;-43
2022/12/17 14:38:33;;;;;;;41.80;24.30;;;;;;;11.89;88.88;99820.94;5068967;28;20421;-43
2022/12/17 14:44:00;;;;;;;38.17;21.63;;;;;;;11.89;88.45;99844.13;5060374;28;20035;-44
2022/12/17 14:46:28;;;;;;;40.33;21.17;;;;;;;11.81;88.64;99836.34;5051272;28;20080;-44
2022/12/17 14:49:02;;;;;;;41.22;23.40;;;;;;;11.92;88.88;99833.06;5051188;28;20012;-44
2022/12/17 14:51:36;;;;;;;45.40;23.85;;;;;;;11.88;88.12;99853.97;5050797;28;20032;-43
2022/12/17 14:54:13;;;;;;;40.47;23.25;;;;;;;11.79;88.24;99859.75;5055746;28;20051;-44
2022/12/17 14:56:43;;;;;;;39.45;22.58;;;;;;;11.71;87.80;99850.13;5057444;28;20025;-44
2022/12/17 14:59:20;;;;;;;41.17;22.92;;;;;;;11.55;89.59;99862.00;5054547;28;20132;-43
2022/12/17 15:01:46;;;;;;;38.83;22.30;;;;;;;11.38;90.19;99880.25;5050643;28;20063;-42
2022/12/17 15:04:12;;;;;;;42.10;25.35;;;;;;;11.67;88.63;99876.38;5051168;28;20033;-43
2022/12/17 15:06:37;;;;;;;43.80;24.23;;;;;;;11.71;88.40;99882.91;5060216;28;20017;-43
2022/12/17 15:09:03;;;;;;;43.38;24.27;;;;;;;11.73;87.33;99888.84;5071140;28;20022;-43
2022/12/17 15:11:29;;;;;;;43.38;23.70;;;;;;;11.54;88.90;99898.50;5070596;28;20484;-43
2022/12/17 15:13:54;;;;;;;37.08;22.30;;;;;;;11.66;88.02;99905.88;5071000;28;20107;-42
2022/12/17 15:16:20;;;;;;;41.28;22.02;;;;;;;11.46;89.67;99909.38;5069074;28;20393;-43
2022/12/17 15:18:45;;;;;;;42.15;24.42;;;;;;;11.49;88.96;99911.63;5064949;28;20057;-43
2022/12/17 15:21:11;;;;;;;44.70;26.70;;;;;;;11.75;88.30;99910.00;5070673;28;20032;-43
2022/12/17 15:23:40;;;;;;;47.72;28.45;;;;;;;11.91;87.86;99930.91;5071176;28;20074;-43
2022/12/17 15:26:05;;;;;;;47.35;25.88;;;;;;;12.13;86.72;99941.34;5065951;28;20036;-43
2022/12/17 15:28:31;;;;;;;43.80;26.08;;;;;;;11.84;87.54;99956.75;5057819;28;20028;-43
2022/12/17 15:30:56;;;;;;;40.80;24.38;;;;;;;11.83;89.04;99964.94;5070471;28;20020;-43
2022/12/17 15:33:21;;;;;;;47.00;27.02;;;;;;;11.63;89.96;99984.44;5069955;28;20063;-43
2022/12/17 15:35:47;;;;;;;45.65;26.55;;;;;;;11.81;90.37;99988.31;5070442;28;20028;-42
2022/12/17 15:38:12;;;;;;;48.67;27.73;;;;;;;11.67;91.00;100000.81;5070538;28;20025;-43
2022/12/17 15:40:38;;;;;;;49.75;29.48;;;;;;;11.67;91.41;100009.66;5070578;28;20024;-42
2022/12/17 15:43:09;;;;;;;55.55;30.08;;;;;;;11.80;90.05;100014.16;5070768;28;20032;-43
2022/12/17 15:45:36;;;;;;;54.08;30.33;;;;;;;11.84;90.61;100022.56;5070884;28;20036;-44
2022/12/17 15:48:02;;;;;;;56.20;30.75;;;;;;;11.89;89.93;100017.44;5070985;28;20036;-45
2022/12/17 15:50:27;;;;;;;58.35;33.95;;;;;;;11.90;90.58;100008.47;5070559;28;20020;-44
2022/12/17 15:52:53;;;;;;;59.67;31.92;;;;;;;12.01;90.71;100004.34;5071236;28;20021;-44
2022/12/17 15:55:18;;;;;;;62.80;32.47;;;;;;;11.76;94.11;99977.44;5062460;28;20029;-44
2022/12/17 15:57:44;;;;;;;60.28;31.25;;;;;;;11.75;94.75;99949.97;5060958;28;20047;-44
2022/12/17 16:00:09;;;;;;;47.17;27.65;;;;;;;11.43;96.33;99898.31;5065864;28;20107;-43
2022/12/17 16:02:35;;;;;;;48.50;27.67;;;;;;;11.04;99.78;99860.81;5052438;28;20067;-43
2022/12/17 16:05:00;;;;;;;45.47;23.30;;;;;;;11.41;100.00;99860.41;5050503;28;20040;-42
2022/12/17 16:07:26;;;;;;;50.10;27.05;;;;;;;11.64;98.72;99867.97;5066390;28;20032;-43
2022/12/17 16:09:51;;;;;;;54.03;30.20;;;;;;;11.77;98.04;99856.47;5070282;28;20380;-43
2022/12/17 16:12:17;;;;;;;51.78;27.30;;;;;;;12.06;97.49;99845.31;5070635;28;20020;-43
2022/12/17 16:14:42;;;;;;;48.88;25.60;;;;;;;11.95;97.67;99875.31;5070811;28;20059;-43
2022/12/17 16:17:07;;;;;;;45.05;25.33;;;;;;;12.00;96.84;99915.50;5070616;28;20509;-44
2022/12/17 16:19:33;;;;;;;51.05;29.30;;;;;;;11.97;98.58;99928.44;5070498;28;20064;-44
2022/12/17 16:21:58;;;;;;;48.35;27.95;;;;;;;11.89;97.78;99918.78;5070621;28;20135;-44
2022/12/17 16:24:23;;;;;;;51.35;29.95;;;;;;;11.92;97.32;99894.41;5070422;28;20020;-43
2022/12/17 16:26:49;;;;;;;50.65;29.10;;;;;;;11.84;99.30;99906.09;5070273;28;20667;-43
2022/12/17 16:29:14;;;;;;;58.10;34.40;;;;;;;12.01;97.88;99905.66;5069956;28;20024;-42
2022/12/17 16:31:40;;;;;;;52.03;30.20;;;;;;;12.05;96.28;99921.03;5055550;28;20052;-42
2022/12/17 16:34:09;;;;;;;48.25;28.70;;;;;;;12.13;99.74;99915.47;5070188;28;20635;-44
2022/12/17 16:36:35;;;;;;;52.00;30.58;;;;;;;13.41;92.30;99915.66;5070259;28;20024;-44
2022/12/17 16:39:02;;;;;;;51.72;30.00;;;;;;;12.93;90.97;99913.47;5070276;28;20495;-43
2022/12/17 16:41:27;;;;;;;54.70;31.42;;;;;;;12.45;94.15;99891.56;5070628;28;20029;-43
2022/12/17 16:43:53;;;;;;;53.78;30.55;;;;;;;12.46;94.32;99895.84;5070754;28;20025;-44
2022/12/17 16:46:28;;;;;;;46.90;28.30;;;;;;;12.28;94.54;99893.88;5071537;28;20107;-43
2022/12/17 16:48:55;;;;;;;54.47;31.15;;;;;;;12.02;96.09;99901.97;5073891;28;20029;-43
2022/12/17 16:51:22;;;;;;;51.05;29.83;;;;;;;11.58;98.00;99917.59;5073850;28;20027;-42
2022/12/17 16:53:48;;;;;;;55.35;29.80;;;;;;;11.41;99.75;99924.34;5074009;28;20024;-45
2022/12/17 16:56:27;;;;;;;49.92;28.58;;;;;;;11.60;100.00;99936.84;5073834;28;20458;-44
2022/12/17 16:58:53;;;;;;;52.47;28.70;;;;;;;11.55;98.58;99936.63;5073108;28;20109;-38
2022/12/17 17:01:21;;;;;;;61.33;35.20;;;;;;;11.40;99.54;99942.16;5073040;28;20107;-46
2022/12/17 17:03:48;;;;;;;84.28;45.58;;;;;;;11.37;99.37;99939.91;5071148;28;20056;-45
2022/12/17 17:06:16;;;;;;;87.75;46.53;;;;;;;11.26;99.10;99933.34;5063763;28;20056;-44
2022/12/17 17:08:42;;;;;;;81.90;45.65;;;;;;;11.28;98.47;99939.28;5056310;28;20126;-44
2022/12/17 17:11:20;;;;;;;76.43;43.97;;;;;;;10.94;99.42;99940.25;5051614;28;20489;-46
2022/12/17 17:13:48;;;;;;;68.43;38.50;;;;;;;11.05;99.52;99936.19;5053264;28;20033;-45
2022/12/17 17:16:14;;;;;;;65.15;36.28;;;;;;;10.79;99.91;99942.25;5052954;28;20091;-45
2022/12/17 17:18:39;;;;;;;73.45;39.78;;;;;;;10.88;100.00;99944.53;5051916;28;20136;-44
2022/12/17 17:21:36;;;;;;;70.85;41.38;;;;;;;10.91;99.18;99956.66;5065142;28;20507;-44
2022/12/17 17:24:11;;;;;;;72.28;39.83;;;;;;;10.96;98.43;99962.97;5063829;28;20044;-45
2022/12/17 17:26:37;;;;;;;71.00;39.58;;;;;;;10.73;100.00;99968.63;5065735;28;20033;-44
2022/12/17 17:29:03;;;;;;;72.18;38.38;;;;;;;10.56;100.00;99962.03;5054345;28;20036;-37
2022/12/17 17:31:29;;;;;;;61.28;34.78;;;;;;;10.58;100.00;99959.97;5052139;28;20029;-37
2022/12/17 17:33:54;;;;;;;64.45;34.90;;;;;;;10.67;100.00;99981.94;5056066;28;20039;-36
2022/12/17 17:36:32;;;;;;;60.53;34.35;;;;;;;10.66;100.00;99980.28;5072931;28;20602;-36
2022/12/17 17:38:58;;;;;;;64.88;34.63;;;;;;;10.66;100.00;99988.25;5071665;28;20044;-37
2022/12/17 17:41:26;;;;;;;63.65;34.88;;;;;;;10.57;100.00;99983.13;5070954;28;20055;-36
2022/12/17 17:43:57;;;;;;;63.20;33.40;;;;;;;10.44;100.00;99966.28;5071816;28;20032;-36
2022/12/17 17:46:23;;;;;;;61.03;34.08;;;;;;;10.54;100.00;99978.19;5072005;28;20033;-36
2022/12/17 17:48:50;;;;;;;61.78;34.13;;;;;;;10.49;100.00;99987.78;5071522;28;20066;-37
2022/12/17 17:51:22;;;;;;;73.68;40.97;;;;;;;10.34;100.00;99985.25;5071066;28;20024;-37
2022/12/17 17:53:50;;;;;;;84.57;45.83;;;;;;;10.25;100.00;99976.56;5071700;28;20020;-36
2022/12/17 17:56:18;;;;;;;76.82;40.45;;;;;;;10.22;100.00;99982.25;5071716;28;20044;-37
2022/12/17 17:59:01;;;;;;;67.10;36.53;;;;;;;10.09;100.00;99990.16;5072033;28;20427;-37
2022/12/17 18:01:29;;;;;;;66.07;35.70;;;;;;;10.12;100.00;99995.91;5071278;28;20020;-36
2022/12/17 18:03:57;;;;;;;65.70;35.03;;;;;;;10.13;100.00;100002.06;5072087;28;20040;-36
2022/12/17 18:06:23;;;;;;;69.68;36.58;;;;;;;10.16;100.00;100001.66;5071908;28;20154;-37
2022/12/17 18:08:48;;;;;;;83.97;46.90;;;;;;;9.85;100.00;99991.44;5072112;28;20099;-38
2022/12/17 18:11:16;;;;;;;135.43;77.25;;;;;;;9.86;100.00;99996.56;5071927;28;20461;-37
2022/12/17 18:13:54;;;;;;;82.75;44.50;;;;;;;10.02;100.00;100003.41;5072014;28;20020;-37
2022/12/17 18:16:43;;;;;;;63.60;36.17;;;;;;;10.15;100.00;100000.84;5072400;28;20040;-37
2022/12/17 18:19:15;;;;;;;67.63;36.55;;;;;;;10.31;100.00;99997.09;5072209;28;20033;-36
2022/12/17 18:21:41;;;;;;;77.30;41.95;;;;;;;10.11;100.00;100004.06;5072062;28;20468;-36
2022/12/17 18:24:10;;;;;;;79.97;43.33;;;;;;;10.02;100.00;100007.94;5072391;28;20032;-35
2022/12/17 18:26:41;;;;;;;77.20;41.22;;;;;;;10.10;100.00;100011.25;5072191;28;20021;-36
2022/12/17 18:29:28;;;;;;;88.30;47.92;;;;;;;10.18;100.00;100018.25;5072000;28;20039;-36
2022/12/17 18:31:54;;;;;;;74.72;40.80;;;;;;;10.22;100.00;100013.38;5072178;28;20028;-37
2022/12/17 18:34:22;;;;;;;70.30;36.97;;;;;;;10.08;100.00;100025.75;5071810;28;20054;-36
2022/12/17 18:36:49;;;;;;;77.00;39.20;;;;;;;10.20;100.00;100028.69;5072237;28;20043;-37
2022/12/17 18:39:16;;;;;;;68.30;36.83;;;;;;;10.16;100.00;100033.59;5072057;28;20025;-38
2022/12/17 18:44:28;;;;;;;70.25;39.92;;;;;;;9.69;100.00;100035.88;5071859;28;20121;-36
2022/12/17 18:46:53;;;;;;;77.18;41.50;;;;;;;9.68;100.00;100052.81;5071880;28;20085;-37
2022/12/17 18:49:21;;;;;;;82.18;41.33;;;;;;;9.76;100.00;100055.34;5071860;28;20020;-37
2022/12/17 18:51:48;;;;;;;89.25;44.40;;;;;;;9.68;100.00;100065.28;5071505;28;20029;-37
2022/12/17 18:54:19;;;;;;;82.22;41.97;;;;;;;9.72;100.00;100061.22;5072053;28;20028;-44
2022/12/17 18:56:45;;;;;;;68.70;39.38;;;;;;;9.66;100.00;100054.03;5071510;28;20020;-37
2022/12/17 18:59:16;;;;;;;76.78;38.83;;;;;;;9.57;100.00;100042.69;5071868;28;20094;-37
2022/12/17 19:01:42;;;;;;;67.57;37.00;;;;;;;9.55;100.00;100034.09;5071451;28;20048;-37
2022/12/17 19:04:10;;;;;;;73.50;38.25;;;;;;;9.65;100.00;100031.94;5071385;28;20098;-37
2022/12/17 19:06:37;;;;;;;88.35;45.65;;;;;;;9.63;100.00;100044.59;5071230;28;20414;-36
2022/12/17 19:09:04;;;;;;;74.80;41.75;;;;;;;9.51;100.00;100038.13;5070681;28;20106;-36
2022/12/17 19:11:32;;;;;;;76.93;40.92;;;;;;;9.70;100.00;100042.81;5071349;28;20025;-36
2022/12/17 19:13:57;;;;;;;76.07;42.53;;;;;;;9.62;100.00;100050.94;5071510;28;20020;-36
2022/12/17 19:16:25;;;;;;;88.72;45.78;;;;;;;9.67;100.00;100055.66;5071485;28;20107;-37
2022/12/17 19:18:55;;;;;;;177.18;99.68;;;;;;;9.86;100.00;100057.69;5071319;28;20532;-36
2022/12/17 19:21:22;;;;;;;162.77;83.13;;;;;;;9.70;100.00;100064.06;5071456;28;20515;-37
2022/12/17 19:23:49;;;;;;;93.30;48.53;;;;;;;9.96;100.00;100063.50;5071372;28;20457;-37
2022/12/17 19:26:19;;;;;;;85.45;45.53;;;;;;;10.03;100.00;100076.84;5071415;28;20059;-37
2022/12/17 19:28:47;;;;;;;89.47;45.42;;;;;;;9.95;100.00;100092.94;5071077;28;20027;-37
2022/12/17 19:31:14;;;;;;;84.53;45.58;;;;;;;9.70;100.00;100103.94;5071035;28;20097;-37
2022/12/17 19:33:40;;;;;;;83.65;45.60;;;;;;;9.83;100.00;100107.75;5071148;28;20036;-36
2022/12/17 19:36:11;;;;;;;88.05;46.33;;;;;;;9.70;100.00;100108.44;5070932;28;20032;-37
2022/12/17 19:38:37;;;;;;;84.60;45.17;;;;;;;9.60;100.00;100119.38;5070852;28;20530;-37
2022/12/17 19:41:08;;;;;;;87.50;46.03;;;;;;;9.69;100.00;100126.22;5071038;28;20029;-36
2022/12/17 19:43:34;;;;;;;87.53;45.88;;;;;;;9.55;100.00;100127.91;5070788;28;20024;-37
2022/12/17 19:46:05;;;;;;;84.25;45.28;;;;;;;9.52;100.00;100120.31;5070958;28;20162;-36
2022/12/17 19:48:32;;;;;;;76.45;41.47;;;;;;;9.56;100.00;100118.13;5070908;28;20031;-37
2022/12/17 19:50:57;;;;;;;80.10;43.95;;;;;;;9.66;100.00;100123.13;5070923;28;20032;-37
2022/12/17 19:53:25;;;;;;;81.35;42.50;;;;;;;9.73;100.00;100129.34;5070916;28;20028;-36
2022/12/17 19:55:52;;;;;;;82.82;41.80;;;;;;;9.69;100.00;100146.66;5071295;28;20032;-37
2022/12/17 19:58:17;;;;;;;94.13;45.97;;;;;;;9.89;100.00;100154.84;5070683;28;20020;-37
2022/12/17 20:00:42;;;;;;;80.70;44.80;;;;;;;9.82;100.00;100167.22;5070458;28;20021;-36
2022/12/17 20:03:08;;;;;;;74.43;41.25;;;;;;;9.71;100.00;100168.53;5070787;28;20396;-37
2022/12/17 20:05:34;;;;;;;75.47;40.55;;;;;;;9.87;100.00;100170.16;5070756;28;20475;-36
2022/12/17 20:07:59;;;;;;;75.93;40.15;;;;;;;9.95;100.00;100173.50;5070992;28;20020;-37
2022/12/17 20:10:25;;;;;;;74.28;40.13;;;;;;;9.97;100.00;100158.19;5070218;28;20020;-37
2022/12/17 20:12:50;;;;;;;74.78;37.63;;;;;;;10.10;100.00;100138.06;5070571;28;20464;-37
2022/12/17 20:15:15;;;;;;;73.15;37.92;;;;;;;10.45;100.00;100124.88;5070643;28;20571;-37
2022/12/17 20:17:41;;;;;;;71.75;38.78;;;;;;;10.40;100.00;100137.97;5070420;28;20052;-36
2022/12/17 20:20:07;;;;;;;71.13;37.50;;;;;;;10.28;100.00;100149.09;5071396;28;20443;-37
2022/12/17 20:22:32;;;;;;;73.82;37.05;;;;;;;10.42;100.00;100115.44;5074436;28;20027;-37
2022/12/17 20:25:00;;;;;;;72.63;39.63;;;;;;;10.43;100.00;100098.47;5074580;28;20021;-38
2022/12/17 20:27:25;;;;;;;71.28;37.55;;;;;;;10.45;100.00;100048.56;5072934;28;20028;-37
2022/12/17 20:29:52;;;;;;;70.45;35.88;;;;;;;10.42;100.00;100037.47;5074252;28;20023;-37
2022/12/17 20:32:19;;;;;;;69.15;38.05;;;;;;;10.74;100.00;100074.09;5074025;28;20062;-36
2022/12/17 20:34:45;;;;;;;65.20;35.53;;;;;;;10.72;100.00;100104.63;5074474;28;20024;-38
2022/12/17 20:37:10;;;;;;;65.90;35.00;;;;;;;10.60;100.00;100117.63;5074287;28;20416;-37
2022/12/17 20:39:36;;;;;;;64.78;34.28;;;;;;;10.52;100.00;100137.22;5074180;28;20107;-37
2022/12/17 20:42:01;;;;;;;68.95;35.58;;;;;;;10.60;100.00;100148.75;5073532;28;20081;-36
2022/12/17 20:44:27;;;;;;;69.57;36.72;;;;;;;10.42;100.00;100151.88;5074315;28;20035;-37
2022/12/17 20:46:53;;;;;;;64.75;35.95;;;;;;;10.44;100.00;100150.66;5074318;28;20035;-37
2022/12/17 20:49:18;;;;;;;64.20;33.50;;;;;;;10.43;100.00;100158.84;5074115;28;20047;-37
2022/12/17 20:51:44;;;;;;;67.57;35.05;;;;;;;10.55;100.00;100165.28;5073284;28;20031;-36
2022/12/17 20:54:09;;;;;;;66.53;35.38;;;;;;;10.36;100.00;100161.47;5070042;28;20066;-36
2022/12/17 20:56:35;;;;;;;58.50;33.60;;;;;;;10.36;100.00;100164.13;5073439;28;20139;-37
2022/12/17 20:59:06;;;;;;;59.65;32.25;;;;;;;10.45;100.00;100165.63;5070884;28;20453;-37
2022/12/17 21:01:33;;;;;;;61.40;32.60;;;;;;;10.47;100.00;100163.59;5068398;28;20024;-37
2022/12/17 21:04:00;;;;;;;71.50;34.95;;;;;;;10.57;100.00;100169.41;5063874;28;20030;-37
2022/12/17 21:06:31;;;;;;;73.03;37.50;;;;;;;10.68;100.00;100167.22;5073182;28;20496;-37
2022/12/17 21:08:57;;;;;;;65.53;35.97;;;;;;;10.73;100.00;100183.44;5072896;28;20029;-37
2022/12/17 21:11:24;;;;;;;73.28;40.38;;;;;;;10.64;100.00;100198.75;5072537;28;20028;-37
2022/12/17 21:13:51;;;;;;;67.75;37.50;;;;;;;10.43;100.00;100186.25;5072428;28;20514;-37
2022/12/17 21:16:28;;;;;;;65.72;37.08;;;;;;;10.40;100.00;100178.69;5072896;28;20154;-36
2022/12/17 21:19:01;;;;;;;62.20;35.63;;;;;;;10.30;100.00;100188.78;5072068;28;20041;-37
2022/12/17 21:21:29;;;;;;;69.20;37.42;;;;;;;10.28;100.00;100193.47;5052150;28;20048;-36
2022/12/17 21:23:56;;;;;;;63.50;37.05;;;;;;;10.33;100.00;100207.06;5051983;28;20451;-36
2022/12/17 21:26:28;;;;;;;61.00;35.50;;;;;;;10.31;100.00;100195.78;5052060;28;20075;-36
2022/12/17 21:29:00;;;;;;;62.17;35.72;;;;;;;10.15;100.00;100207.47;5052763;28;20021;-37
2022/12/17 21:31:39;;;;;;;60.08;33.80;;;;;;;10.28;100.00;100204.94;5051426;28;20082;-37
2022/12/17 21:34:06;;;;;;;62.88;34.08;;;;;;;10.22;100.00;100192.38;5057329;28;20599;-37
2022/12/17 21:36:33;;;;;;;67.43;35.65;;;;;;;10.30;100.00;100204.72;5072155;28;20016;-36
2022/12/17 21:38:59;;;;;;;61.22;34.65;;;;;;;10.20;100.00;100202.38;5072054;28;20025;-37
2022/12/17 21:41:27;;;;;;;56.92;33.00;;;;;;;10.12;100.00;100213.97;5071080;28;20103;-37
2022/12/17 21:43:54;;;;;;;64.88;35.13;;;;;;;10.23;100.00;100217.16;5072039;28;20029;-37
2022/12/17 21:46:19;;;;;;;63.33;35.05;;;;;;;10.25;100.00;100210.63;5071811;28;20473;-37
2022/12/17 21:48:45;;;;;;;58.22;34.33;;;;;;;10.26;100.00;100214.09;5072175;28;20077;-36
2022/12/17 21:51:12;;;;;;;66.50;36.80;;;;;;;10.16;100.00;100209.09;5071865;28;20020;-37
2022/12/17 21:53:41;;;;;;;63.47;34.28;;;;;;;9.91;100.00;100198.81;5071962;28;20024;-36
2022/12/17 21:56:16;;;;;;;60.05;33.47;;;;;;;9.90;100.00;100197.19;5072001;28;20078;-36
2022/12/17 21:58:43;;;;;;;61.22;32.83;;;;;;;9.80;100.00;100196.66;5071738;28;20029;-37
2022/12/17 22:01:20;;;;;;;52.70;32.25;;;;;;;10.33;100.00;100199.06;5071573;28;20374;-37
2022/12/17 22:03:47;;;;;;;52.60;30.42;;;;;;;10.78;100.00;100198.84;5071710;28;20034;-37
2022/12/17 22:06:15;;;;;;;44.17;26.77;;;;;;;11.23;98.46;100204.66;5072098;28;20090;-37
2022/12/17 22:08:42;;;;;;;44.05;26.25;;;;;;;11.61;95.68;100199.69;5071268;28;20111;-37
2022/12/17 22:11:09;;;;;;;39.85;24.67;;;;;;;11.77;93.22;100195.88;5071599;28;20033;-37
2022/12/17 22:16:20;;;;;;;44.35;28.65;;;;;;;12.11;89.74;100184.31;5072180;28;20066;-38
2022/12/17 22:18:46;;;;;;;45.47;27.42;;;;;;;11.85;90.12;100192.22;5071106;28;20049;-38
2022/12/17 22:21:11;;;;;;;45.97;27.23;;;;;;;11.52;93.83;100200.91;5061299;28;20036;-37
2022/12/17 22:23:37;;;;;;;41.53;25.92;;;;;;;11.44;92.73;100206.41;5051299;28;20020;-37
2022/12/17 22:26:08;;;;;;;40.80;24.83;;;;;;;11.90;91.82;100221.81;5051003;28;20017;-37
2022/12/17 22:28:33;;;;;;;40.63;25.60;;;;;;;11.98;88.64;100212.81;5051190;28;20024;-35
2022/12/17 22:33:48;;;;;;;45.08;27.83;;;;;;;11.57;91.85;100222.44;5054064;28;20027;-37
2022/12/17 22:36:14;;;;;;;42.55;26.48;;;;;;;11.42;92.88;100227.91;5071295;28;20024;-37
2022/12/17 22:38:40;;;;;;;42.50;25.92;;;;;;;11.60;92.12;100227.41;5070622;28;20047;-36
2022/12/17 22:41:06;;;;;;;39.97;24.55;;;;;;;12.01;90.05;100228.38;5070722;28;20024;-36
2022/12/17 22:43:33;;;;;;;38.15;23.77;;;;;;;12.32;88.31;100227.84;5071248;28;20024;-36
2022/12/17 22:46:03;;;;;;;36.17;23.45;;;;;;;12.33;85.96;100232.16;5071202;28;20054;-42
2022/12/17 22:48:30;;;;;;;37.42;23.48;;;;;;;12.43;85.38;100231.75;5071213;28;20024;-42
2022/12/17 22:50:56;;;;;;;36.38;23.13;;;;;;;12.15;85.92;100230.06;5070836;28;20396;-42
2022/12/17 22:53:23;;;;;;;35.10;22.75;;;;;;;12.30;85.68;100237.91;5069699;28;20029;-42
2022/12/17 22:55:49;;;;;;;37.17;23.73;;;;;;;12.30;85.94;100244.06;5070932;28;20454;-43
2022/12/17 22:58:16;;;;;;;36.75;22.88;;;;;;;12.44;86.15;100252.09;5070950;28;20055;-41
2022/12/17 23:00:41;;;;;;;37.72;23.73;;;;;;;12.50;84.81;100251.28;5070583;28;20020;-42
2022/12/17 23:03:07;;;;;;;40.28;23.88;;;;;;;12.54;84.21;100251.69;5069738;28;20042;-42
2022/12/17 23:05:32;;;;;;;35.58;21.70;;;;;;;12.75;84.61;100246.16;5070608;28;20024;-42
2022/12/17 23:07:58;;;;;;;33.75;22.38;;;;;;;13.09;83.12;100242.44;5070442;28;20104;-43
2022/12/17 23:10:25;;;;;;;40.38;24.48;;;;;;;12.43;85.09;100239.75;5070392;28;20029;-44
2022/12/17 23:12:55;;;;;;;37.10;24.23;;;;;;;11.72;89.76;100255.13;5070457;28;20025;-43
2022/12/17 23:15:29;;;;;;;45.35;25.73;;;;;;;11.17;92.16;100238.22;5070557;28;20029;-45
2022/12/17 23:17:59;;;;;;;45.17;27.00;;;;;;;11.17;94.35;100221.44;5070165;28;20050;-43
2022/12/17 23:20:25;;;;;;;53.67;30.73;;;;;;;10.86;98.58;100212.00;5069967;28;20086;-43
2022/12/17 23:22:50;;;;;;;52.58;30.27;;;;;;;10.64;98.39;100236.00;5070175;28;20059;-43
2022/12/17 23:25:16;;;;;;;53.10;31.52;;;;;;;10.57;100.00;100262.53;5070497;28;20103;-42
2022/12/17 23:27:43;;;;;;;52.15;30.45;;;;;;;10.42;98.69;100271.63;5070164;28;20104;-42
2022/12/17 23:30:10;;;;;;;49.65;29.42;;;;;;;10.35;99.61;100272.34;5070011;28;20040;-43
2022/12/17 23:32:36;;;;;;;52.33;30.92;;;;;;;10.24;100.00;100275.47;5069961;28;20115;-43
2022/12/17 23:35:01;;;;;;;50.47;31.17;;;;;;;10.89;100.00;100286.16;5070046;28;20099;-43
2022/12/17 23:37:26;;;;;;;50.92;30.67;;;;;;;11.16;100.00;100281.88;5070112;28;20017;-43
2022/12/17 23:39:52;;;;;;;54.38;30.15;;;;;;;10.92;100.00;100283.94;5070004;28;20100;-42
2022/12/17 23:42:17;;;;;;;55.85;31.80;;;;;;;10.72;100.00;100283.78;5069960;28;20126;-42
2022/12/17 23:44:43;;;;;;;58.30;32.53;;;;;;;10.80;100.00;100290.81;5070098;28;20025;-42
2022/12/17 23:47:08;;;;;;;54.15;31.55;;;;;;;10.95;100.00;100296.06;5069992;28;20051;-42
2022/12/17 23:49:33;;;;;;;61.70;34.60;;;;;;;11.03;100.00;100297.75;5069609;28;20022;-42
2022/12/17 23:51:59;;;;;;;57.78;33.45;;;;;;;11.13;100.00;100303.56;5069723;28;20117;-42
2022/12/17 23:54:24;;;;;;;55.10;31.33;;;;;;;10.89;98.91;100297.66;5069873;28;20024;-43
2022/12/17 23:56:50;;;;;;;55.65;31.48;;;;;;;10.71;100.00;100308.72;5073751;28;20393;-42
2022/12/17 23:59:15;;;;;;;52.00;29.73;;;;;;;10.56;100.00;100313.28;5073845;28;20499;-41
